Time;durP1;ratioP1;P1;durP2;ratioP2;P2;SDS_P1;SDS_P2;PMS_P1;PMS_P2;Temp;Humidity;BMP_temperature;BMP_pressure;BME280_temperature;BME280_humidity;BME280_pressure;Samples;Min_cycle;Max_cycle;Signal;HPM_P1;HPM_P2
2023/08/05 00:00:38;;;;;;;5.37;2.23;;;;;;;15.70;100.00;101687.94;5069645;28;19917;-37
2023/08/05 00:03:04;;;;;;;;;;;;;;;15.92;100.00;101691.63;5070170;28;20261;-37
2023/08/05 00:05:29;;;;;;;3.85;2.25;;;;;;;15.83;100.00;101695.00;5069570;28;20367;-37
2023/08/05 00:07:54;;;;;;;;;;;;;;;15.93;100.00;101685.09;5070603;28;20036;-37
2023/08/05 00:10:20;;;;;;;6.50;2.28;;;;;;;15.82;100.00;101683.25;5061419;28;19913;-37
2023/08/05 00:12:45;;;;;;;;;;;;;;;15.94;100.00;101685.91;5057296;28;20026;-37
2023/08/05 00:15:10;;;;;;;4.25;2.30;;;;;;;15.80;100.00;101681.84;5057042;28;19913;-37
2023/08/05 00:17:35;;;;;;;;;;;;;;;15.92;100.00;101677.97;5057409;28;20036;-37
2023/08/05 00:20:01;;;;;;;5.37;2.33;;;;;;;15.73;100.00;101656.63;5056732;28;19922;-37
2023/08/05 00:22:26;;;;;;;;;;;;;;;15.92;100.00;101674.44;5056317;28;20750;-37
2023/08/05 00:24:51;;;;;;;5.20;2.13;;;;;;;15.79;100.00;101667.38;5055761;28;19912;-37
2023/08/05 00:27:17;;;;;;;;;;;;;;;15.91;100.00;101662.69;5057309;28;20277;-37
2023/08/05 00:29:42;;;;;;;3.45;2.05;;;;;;;15.76;100.00;101672.47;5055943;28;20009;-37
2023/08/05 00:32:07;;;;;;;;;;;;;;;15.90;100.00;101666.47;5056944;28;20025;-37
2023/08/05 00:34:34;;;;;;;3.75;2.13;;;;;;;15.78;100.00;101665.72;5055850;28;20033;-37
2023/08/05 00:36:59;;;;;;;4.40;2.50;;;;;;;15.68;100.00;101660.91;5056659;28;20370;-37
2023/08/05 00:39:24;;;;;;;;;;;;;;;15.87;100.00;101663.44;5056603;28;20035;-37
2023/08/05 00:41:50;;;;;;;3.30;2.53;;;;;;;15.70;100.00;101658.75;5056059;28;19913;-37
2023/08/05 00:44:15;;;;;;;3.72;2.20;;;;;;;15.70;100.00;101649.75;5055670;28;20274;-37
2023/08/05 00:46:41;;;;;;;;;;;;;;;15.86;100.00;101662.59;5056949;28;20025;-37
2023/08/05 00:49:07;;;;;;;4.47;2.65;;;;;;;15.68;100.00;101654.66;5055295;28;20303;-38
2023/08/05 00:51:32;;;;;;;;;;;;;;;15.84;100.00;101658.47;5056609;28;20025;-36
2023/08/05 00:53:58;;;;;;;6.57;2.22;;;;;;;15.60;100.00;101634.00;5055198;28;19920;-36
2023/08/05 00:56:24;;;;;;;;;;;;;;;15.78;100.00;101638.47;5056556;28;20100;-37
2023/08/05 00:58:49;;;;;;;3.47;2.30;;;;;;;15.65;100.00;101625.94;5055153;28;19924;-37
2023/08/05 01:01:14;;;;;;;;;;;;;;;15.75;100.00;101627.22;5056183;28;20025;-37
2023/08/05 01:03:40;;;;;;;3.97;2.60;;;;;;;15.63;100.00;101640.88;5055314;28;19913;-37
2023/08/05 01:06:05;;;;;;;4.40;2.60;;;;;;;15.54;100.00;101635.00;5055656;28;20286;-37
2023/08/05 01:08:31;;;;;;;;;;;;;;;15.65;100.00;101634.13;5055347;28;20071;-37
2023/08/05 01:10:56;;;;;;;3.95;2.40;;;;;;;15.52;100.00;101639.88;5055498;28;20003;-37
2023/08/05 01:13:22;;;;;;;;;;;;;;;15.62;100.00;101628.34;5055883;28;20028;-37
2023/08/05 01:15:48;;;;;;;5.90;2.65;;;;;;;15.36;100.00;101610.66;5055682;28;19913;-37
2023/08/05 01:18:15;;;;;;;;;;;;;;;15.56;100.00;101621.94;5055510;28;20025;-37
2023/08/05 01:20:45;;;;;;;3.85;2.53;;;;;;;15.30;100.00;101615.19;5055162;28;19913;-36
2023/08/05 01:23:21;;;;;;;2.83;2.50;;;;;;;15.29;100.00;101619.00;5054600;28;20025;-37
2023/08/05 01:25:47;;;;;;;4.28;2.72;;;;;;;15.30;100.00;101625.28;5055776;28;20033;-37
2023/08/05 01:28:14;;;;;;;5.18;3.20;;;;;;;15.23;100.00;101613.72;5054592;28;20041;-37
2023/08/05 01:30:41;;;;;;;3.10;2.70;;;;;;;15.14;100.00;101624.16;5054757;28;20527;-37
2023/08/05 01:33:07;;;;;;;6.88;3.00;;;;;;;15.21;100.00;101624.84;5055314;28;20033;-37
2023/08/05 01:35:33;;;;;;;3.40;2.45;;;;;;;15.13;100.00;101619.78;5054945;28;20117;-37
2023/08/05 01:37:58;;;;;;;4.53;2.80;;;;;;;15.07;100.00;101627.00;5055200;28;20431;-37
2023/08/05 01:40:28;;;;;;;;;;;;;;;15.26;100.00;101629.56;5055855;28;20530;-37
2023/08/05 01:42:56;;;;;;;3.78;2.55;;;;;;;15.10;100.00;101621.09;5054602;28;19935;-37
2023/08/05 01:45:21;;;;;;;4.85;2.80;;;;;;;15.14;100.00;101619.53;5055302;28;20112;-37
2023/08/05 01:47:46;;;;;;;4.00;2.58;;;;;;;15.11;100.00;101611.00;5054216;28;20061;-37
2023/08/05 01:50:12;;;;;;;4.22;2.90;;;;;;;15.16;100.00;101619.28;5054136;28;20032;-37
2023/08/05 01:52:37;;;;;;;;;;;;;;;15.27;100.00;101620.31;5055399;28;20096;-37
2023/08/05 01:55:03;;;;;;;4.93;3.03;;;;;;;15.14;100.00;101621.44;5054389;28;20353;-37
2023/08/05 01:57:28;;;;;;;4.88;2.97;;;;;;;15.05;100.00;101623.72;5054286;28;20270;-37
2023/08/05 01:59:53;;;;;;;5.32;2.92;;;;;;;14.88;100.00;101606.47;5054546;28;20052;-37
2023/08/05 02:02:19;;;;;;;;;;;;;;;15.15;100.00;101618.47;5054647;28;20143;-37
2023/08/05 02:04:44;;;;;;;3.40;2.70;;;;;;;15.00;100.00;101611.91;5054151;28;19920;-37
2023/08/05 02:07:09;;;;;;;;;;;;;;;15.13;100.00;101619.78;5054260;28;20290;-37
2023/08/05 02:09:34;;;;;;;6.57;3.23;;;;;;;15.01;100.00;101621.72;5053787;28;19912;-37
2023/08/05 02:12:00;;;;;;;3.90;2.72;;;;;;;14.97;100.00;101605.00;5054348;28;20263;-37
2023/08/05 02:14:25;;;;;;;6.43;3.72;;;;;;;15.04;100.00;101611.16;5054051;28;20086;-37
2023/08/05 02:16:50;;;;;;;;;;;;;;;15.13;100.00;101617.88;5054474;28;20031;-38
2023/08/05 02:19:16;;;;;;;7.00;3.37;;;;;;;14.99;100.00;101623.88;5053800;28;19923;-37
2023/08/05 02:21:41;;;;;;;4.63;3.10;;;;;;;14.98;100.00;101617.56;5053894;28;20808;-37
2023/08/05 02:24:09;;;;;;;4.07;3.38;;;;;;;14.94;100.00;101613.69;5054404;28;20035;-38
2023/08/05 02:26:36;;;;;;;6.03;3.20;;;;;;;14.88;100.00;101606.47;5054343;28;20438;-38
2023/08/05 02:29:01;;;;;;;;;;;;;;;15.06;100.00;101610.91;5054195;28;20033;-38
2023/08/05 02:31:26;;;;;;;5.00;3.40;;;;;;;14.90;100.00;101604.34;5053409;28;20380;-38
2023/08/05 02:33:52;;;;;;;;;;;;;;;15.05;100.00;101607.38;5054426;28;20032;-37
2023/08/05 02:36:17;;;;;;;3.40;3.10;;;;;;;14.98;100.00;101600.41;5054244;28;19909;-36
2023/08/05 02:38:42;;;;;;;;;;;;;;;15.09;100.00;101605.81;5054444;28;20458;-37
2023/08/05 02:41:08;;;;;;;4.23;3.50;;;;;;;14.90;100.00;101605.16;5053605;28;19920;-38
2023/08/05 02:43:34;;;;;;;;;;;;;;;15.03;100.00;101597.78;5053689;28;20264;-38
2023/08/05 02:45:59;;;;;;;4.30;3.67;;;;;;;14.79;100.00;101594.31;5054107;28;20341;-38
2023/08/05 02:48:25;;;;;;;;;;;;;;;14.95;100.00;101601.72;5053985;28;20107;-38
2023/08/05 02:50:51;;;;;;;4.95;3.90;;;;;;;14.80;100.00;101601.41;5053787;28;19956;-38
2023/08/05 02:53:17;;;;;;;6.53;3.80;;;;;;;14.78;100.00;101589.91;5053693;28;20071;-38
2023/08/05 02:55:43;;;;;;;5.97;3.92;;;;;;;14.77;100.00;101591.00;5053390;28;20065;-38
2023/08/05 02:58:09;;;;;;;;;;;;;;;14.94;100.00;101597.34;5054336;28;20025;-38
2023/08/05 03:00:34;;;;;;;4.47;3.65;;;;;;;14.87;100.00;101600.19;5053234;28;19917;-36
2023/08/05 03:02:59;;;;;;;;;;;;;;;14.96;100.00;101589.75;5054687;28;20021;-37
2023/08/05 03:05:25;;;;;;;5.47;4.30;;;;;;;14.72;100.00;101567.22;5053659;28;20063;-37
2023/08/05 03:07:50;;;;;;;7.32;5.07;;;;;;;14.73;100.00;101579.75;5053962;28;20316;-37
2023/08/05 03:10:15;;;;;;;;;;;;;;;14.88;100.00;101582.81;5053385;28;20071;-37
2023/08/05 03:12:41;;;;;;;6.65;3.83;;;;;;;14.73;100.00;101570.75;5053046;28;19916;-37
2023/08/05 03:15:06;;;;;;;5.53;4.57;;;;;;;14.66;100.00;101566.28;5053499;28;20032;-36
2023/08/05 03:17:32;;;;;;;4.85;4.35;;;;;;;14.67;100.00;101567.94;5053815;28;20067;-37
2023/08/05 03:19:58;;;;;;;3.90;3.50;;;;;;;14.68;100.00;101575.03;5053154;28;20033;-37
2023/08/05 03:22:23;;;;;;;;;;;;;;;14.77;100.00;101566.50;5053998;28;20040;-37
2023/08/05 03:24:49;;;;;;;5.85;4.25;;;;;;;14.59;100.00;101559.31;5053463;28;19919;-37
2023/08/05 03:27:14;;;;;;;5.82;3.95;;;;;;;14.62;100.00;101559.66;5053508;28;20029;-37
2023/08/05 03:29:39;;;;;;;;;;;;;;;14.69;100.00;101562.25;5053536;28;20527;-37
2023/08/05 03:32:05;;;;;;;5.03;4.40;;;;;;;14.53;100.00;101560.28;5053187;28;19913;-37
2023/08/05 03:34:30;;;;;;;4.93;4.15;;;;;;;14.52;100.00;101562.16;5053559;28;20359;-37
2023/08/05 03:36:55;;;;;;;;;;;;;;;14.62;100.00;101550.66;5053515;28;20048;-36
2023/08/05 03:39:21;;;;;;;7.18;4.35;;;;;;;14.47;100.00;101553.03;5053240;28;20025;-37
2023/08/05 03:41:46;;;;;;;;;;;;;;;14.57;100.00;101550.56;5053765;28;20037;-37
2023/08/05 03:44:12;;;;;;;4.78;4.15;;;;;;;14.42;100.00;101540.97;5052926;28;20340;-36
2023/08/05 03:46:37;;;;;;;;;;;;;;;14.54;100.00;101545.59;5057031;28;20029;-37
2023/08/05 03:49:05;;;;;;;6.72;4.50;;;;;;;14.38;100.00;101533.53;5056701;28;19915;-37
2023/08/05 03:51:32;;;;;;;6.95;4.47;;;;;;;14.37;100.00;101526.44;5057060;28;20032;-37
2023/08/05 03:53:58;;;;;;;6.65;4.78;;;;;;;14.34;100.00;101526.91;5056976;28;20367;-37
2023/08/05 03:56:26;;;;;;;6.80;4.80;;;;;;;14.33;100.00;101517.09;5056656;28;20033;-37
2023/08/05 03:58:53;;;;;;;7.47;4.88;;;;;;;14.30;100.00;101514.84;5056791;28;20489;-37
2023/08/05 04:01:21;;;;;;;8.15;4.90;;;;;;;14.27;100.00;101507.19;5056292;28;20075;-37
2023/08/05 04:03:48;;;;;;;6.97;4.95;;;;;;;14.20;100.00;101509.19;5056132;28;20029;-37
2023/08/05 04:06:13;;;;;;;6.38;4.78;;;;;;;14.20;100.00;101515.47;5056691;28;20457;-37
2023/08/05 04:08:39;;;;;;;7.35;5.15;;;;;;;14.22;100.00;101509.78;5056417;28;20040;-37
2023/08/05 04:11:05;;;;;;;;;;;;;;;14.34;100.00;101514.13;5056760;28;20487;-36
2023/08/05 04:13:32;;;;;;;5.75;4.93;;;;;;;14.24;100.00;101521.25;5056034;28;19938;-37
2023/08/05 04:15:59;;;;;;;7.95;4.63;;;;;;;14.18;100.00;101510.25;5056248;28;20021;-37
2023/08/05 04:18:24;;;;;;;6.22;4.80;;;;;;;14.21;100.00;101511.69;5056678;28;20386;-37
2023/08/05 04:20:51;;;;;;;9.02;4.72;;;;;;;14.26;100.00;101527.31;5056201;28;20029;-37
2023/08/05 04:23:20;;;;;;;6.25;5.55;;;;;;;14.24;100.00;101518.53;5056076;28;20035;-38
2023/08/05 04:25:47;;;;;;;7.20;4.80;;;;;;;14.29;100.00;101503.13;5056907;28;20036;-37
2023/08/05 04:28:12;;;;;;;;;;;;;;;14.38;100.00;101492.72;5055253;28;20056;-37
2023/08/05 04:30:37;;;;;;;6.55;5.15;;;;;;;14.26;100.00;101484.59;5056791;28;20010;-37
2023/08/05 04:33:02;;;;;;;;;;;;;;;14.35;100.00;101483.16;5056386;28;20517;-37
2023/08/05 04:35:28;;;;;;;5.13;4.68;;;;;;;14.24;100.00;101473.13;5056145;28;20284;-37
2023/08/05 04:37:53;;;;;;;;;;;;;;;14.35;100.00;101468.72;5056259;28;20052;-37
2023/08/05 04:40:18;;;;;;;7.45;5.38;;;;;;;14.30;100.00;101468.59;5055735;28;19913;-37
2023/08/05 04:42:45;;;;;;;7.05;5.03;;;;;;;14.31;100.00;101473.00;5055808;28;20043;-37
2023/08/05 04:45:11;;;;;;;7.40;5.70;;;;;;;14.27;100.00;101471.81;5055722;28;20079;-37
2023/08/05 04:47:36;;;;;;;6.10;5.30;;;;;;;14.31;100.00;101467.56;5055398;28;20033;-37
2023/08/05 04:50:02;;;;;;;;;;;;;;;14.42;100.00;101466.69;5056060;28;20021;-37
2023/08/05 04:52:28;;;;;;;5.85;4.88;;;;;;;14.21;100.00;101442.88;5055577;28;20334;-36
2023/08/05 04:54:53;;;;;;;;;;;;;;;14.45;100.00;101466.22;5055738;28;20033;-36
2023/08/05 04:57:18;;;;;;;6.20;5.60;;;;;;;14.33;100.00;101466.22;5055899;28;19912;-37
2023/08/05 04:59:44;;;;;;;;;;;;;;;14.46;100.00;101459.69;5056033;28;20056;-36
2023/08/05 05:02:10;;;;;;;8.15;5.68;;;;;;;14.31;100.00;101457.50;5055141;28;20372;-37
2023/08/05 05:04:35;;;;;;;7.55;5.85;;;;;;;14.30;100.00;101460.44;5055865;28;20473;-37
2023/08/05 05:07:00;;;;;;;7.25;6.00;;;;;;;14.33;100.00;101468.13;5055329;28;20529;-37
2023/08/05 05:09:26;;;;;;;6.75;5.95;;;;;;;14.37;100.00;101464.69;5055223;28;20040;-37
2023/08/05 05:11:53;;;;;;;;;;;;;;;14.50;100.00;101465.53;5056225;28;20053;-37
2023/08/05 05:14:20;;;;;;;7.20;6.35;;;;;;;14.43;100.00;101473.78;5055380;28;20361;-37
2023/08/05 05:16:45;;;;;;;7.18;6.38;;;;;;;14.34;100.00;101458.91;5055092;28;20037;-37
2023/08/05 05:19:10;;;;;;;;;;;;;;;14.50;100.00;101460.91;5055992;28;20029;-36
2023/08/05 05:21:36;;;;;;;6.50;5.90;;;;;;;14.43;100.00;101452.00;5055596;28;19917;-36
2023/08/05 05:24:01;;;;;;;7.93;6.22;;;;;;;14.46;100.00;101450.72;5055538;28;20330;-37
2023/08/05 05:26:26;;;;;;;;;;;;;;;14.56;100.00;101461.81;5055948;28;20035;-36
2023/08/05 05:28:52;;;;;;;6.50;5.80;;;;;;;14.43;100.00;101466.44;5054848;28;19982;-37
2023/08/05 05:31:17;;;;;;;7.40;6.43;;;;;;;14.43;100.00;101466.44;5055212;28;20248;-37
2023/08/05 05:33:47;;;;;;;6.60;5.82;;;;;;;14.40;100.00;101464.22;5054468;28;20033;-37
2023/08/05 05:36:13;;;;;;;6.88;6.18;;;;;;;14.39;100.00;101451.66;5054768;28;20519;-37
2023/08/05 05:38:38;;;;;;;7.68;6.30;;;;;;;14.41;100.00;101451.44;5054595;28;20028;-37
2023/08/05 05:41:03;;;;;;;6.32;5.72;;;;;;;14.52;100.00;101447.88;5054946;28;20131;-37
2023/08/05 05:43:29;;;;;;;;;;;;;;;14.61;100.00;101446.41;5055020;28;20068;-37
2023/08/05 05:45:54;;;;;;;8.05;6.38;;;;;;;14.52;100.00;101439.72;5054538;28;20360;-37
2023/08/05 05:48:20;;;;;;;;;;;;;;;14.68;100.00;101447.09;5055529;28;20021;-37
2023/08/05 05:50:45;;;;;;;7.70;6.90;;;;;;;14.58;100.00;101438.72;5054431;28;20033;-37
2023/08/05 05:53:13;;;;;;;;;;;;;;;14.79;100.00;101444.56;5055129;28;20051;-36
2023/08/05 05:55:42;;;;;;;9.50;6.80;;;;;;;14.62;100.00;101434.44;5054358;28;19995;-37
2023/08/05 05:58:08;;;;;;;8.52;7.72;;;;;;;14.62;100.00;101431.72;5054843;28;20114;-37
2023/08/05 06:00:37;;;;;;;7.63;6.93;;;;;;;14.68;100.00;101429.94;5054977;28;20644;-38
2023/08/05 06:03:03;;;;;;;8.38;7.38;;;;;;;14.69;100.00;101428.88;5054523;28;20032;-37
2023/08/05 06:05:28;;;;;;;7.70;7.00;;;;;;;14.74;100.00;101425.41;5054177;28;20024;-37
2023/08/05 06:07:53;;;;;;;;;;;;;;;14.91;100.00;101432.53;5054103;28;20025;-37
2023/08/05 06:10:19;;;;;;;9.98;7.18;;;;;;;14.82;100.00;101430.44;5054058;28;19998;-37
2023/08/05 06:12:44;;;;;;;;;;;;;;;15.00;100.00;101424.78;5055080;28;20108;-37
2023/08/05 06:15:09;;;;;;;8.73;7.30;;;;;;;14.91;100.00;101409.94;5053998;28;19912;-37
2023/08/05 06:17:35;;;;;;;9.88;7.50;;;;;;;15.01;100.00;101421.00;5053720;28;20255;-37
2023/08/05 06:20:00;;;;;;;;;;;;;;;15.15;100.00;101425.03;5055139;28;20039;-37
2023/08/05 06:22:25;;;;;;;12.80;8.00;;;;;;;15.06;100.00;101440.16;5053897;28;20007;-37
2023/08/05 06:24:51;;;;;;;;;;;;;;;15.22;100.00;101429.50;5053949;28;20056;-37
2023/08/05 06:27:17;;;;;;;8.15;7.35;;;;;;;15.09;100.00;101422.50;5054647;28;19913;-37
2023/08/05 06:29:42;;;;;;;8.13;7.00;;;;;;;15.20;100.00;101425.13;5053779;28;20043;-37
2023/08/05 06:32:08;;;;;;;;;;;;;;;15.40;100.00;101421.06;5054748;28;20445;-37
2023/08/05 06:34:33;;;;;;;8.17;6.83;;;;;;;15.48;100.00;101425.28;5053721;28;19912;-37
2023/08/05 06:36:58;;;;;;;8.05;7.25;;;;;;;15.53;100.00;101409.84;5054242;28;20256;-37
2023/08/05 06:39:24;;;;;;;;;;;;;;;15.70;100.00;101410.66;5054061;28;20486;-37
2023/08/05 06:41:49;;;;;;;7.15;6.47;;;;;;;15.63;100.00;101412.75;5054229;28;19920;-37
2023/08/05 06:44:14;;;;;;;;;;;;;;;15.83;100.00;101422.28;5054007;28;20055;-37
2023/08/05 06:46:40;;;;;;;10.75;6.85;;;;;;;15.75;100.00;101419.97;5053282;28;20050;-36
2023/08/05 06:49:05;;;;;;;;;;;;;;;15.89;100.00;101407.63;5053913;28;20174;-37
2023/08/05 06:51:33;;;;;;;9.35;6.93;;;;;;;15.82;100.00;101398.81;5054124;28;20252;-38
2023/08/05 06:53:59;;;;;;;8.82;6.70;;;;;;;15.90;100.00;101406.53;5054028;28;20056;-38
2023/08/05 06:56:24;;;;;;;9.20;7.00;;;;;;;15.92;100.00;101404.41;5053817;28;20485;-37
2023/08/05 06:58:49;;;;;;;;;;;;;;;16.06;100.00;101399.41;5053903;28;20473;-38
2023/08/05 07:01:15;;;;;;;9.40;7.03;;;;;;;15.98;100.00;101388.94;5053953;28;19916;-37
2023/08/05 07:03:42;;;;;;;;;;;;;;;16.14;100.00;101397.03;5054322;28;20040;-37
2023/08/05 07:06:10;;;;;;;7.63;6.53;;;;;;;16.06;100.00;101396.69;5053628;28;20307;-38
2023/08/05 07:08:35;;;;;;;8.85;6.55;;;;;;;16.13;100.00;101389.94;5053225;28;20036;-38
2023/08/05 07:11:01;;;;;;;;;;;;;;;16.29;100.00;101382.75;5053789;28;20033;-38
2023/08/05 07:13:26;;;;;;;7.93;6.30;;;;;;;16.18;100.00;101376.34;5053291;28;19912;-37
2023/08/05 07:15:58;;;;;;;;;;;;;;;16.32;100.00;101379.50;5054281;28;20255;-37
2023/08/05 07:18:23;;;;;;;7.03;5.82;;;;;;;16.26;100.00;101372.34;5053765;28;20295;-37
2023/08/05 07:20:50;;;;;;;;;;;;;;;16.51;100.00;101380.00;5056365;28;20036;-37
2023/08/05 07:23:15;;;;;;;8.60;5.80;;;;;;;16.46;100.00;101380.75;5057559;28;19915;-38
2023/08/05 07:25:41;;;;;;;;;;;;;;;16.60;100.00;101385.81;5057912;28;20025;-38
2023/08/05 07:28:06;;;;;;;6.40;5.15;;;;;;;16.61;100.00;101380.09;5057230;28;19909;-38
2023/08/05 07:30:32;;;;;;;;;;;;;;;16.80;100.00;101379.75;5057519;28;20025;-38
2023/08/05 07:32:57;;;;;;;8.88;5.43;;;;;;;16.80;100.00;101382.47;5057692;28;19951;-38
2023/08/05 07:35:26;;;;;;;;;;;;;;;16.97;100.00;101378.53;5057441;28;20032;-38
2023/08/05 07:37:52;;;;;;;5.72;5.13;;;;;;;16.93;100.00;101366.50;5057763;28;19909;-38
2023/08/05 07:40:17;;;;;;;6.25;5.40;;;;;;;17.04;100.00;101372.84;5056126;28;20487;-38
2023/08/05 07:42:43;;;;;;;;;;;;;;;17.23;100.00;101376.00;5057629;28;20029;-38
2023/08/05 07:45:12;;;;;;;6.28;5.07;;;;;;;17.16;100.00;101375.41;5057611;28;19964;-38
2023/08/05 07:47:41;;;;;;;5.35;4.78;;;;;;;17.11;100.00;101365.25;5057377;28;20033;-37
2023/08/05 07:50:10;;;;;;;5.20;4.20;;;;;;;17.10;100.00;101360.88;5056630;28;20039;-38
2023/08/05 07:52:36;;;;;;;6.30;4.32;;;;;;;17.15;100.00;101371.84;5057277;28;20079;-37
2023/08/05 07:55:01;;;;;;;;;;;;;;;17.30;100.00;101365.66;5056842;28;20025;-38
2023/08/05 07:57:26;;;;;;;5.00;3.65;;;;;;;17.08;100.00;101362.22;5056946;28;20007;-38
2023/08/05 07:59:52;;;;;;;;;;;;;;;17.20;100.00;101355.47;5056948;28;20079;-38
2023/08/05 08:02:17;;;;;;;6.85;3.58;;;;;;;17.08;100.00;101337.63;5056822;28;19919;-37
2023/08/05 08:04:44;;;;;;;;;;;;;;;17.25;100.00;101344.56;5056665;28;20108;-38
2023/08/05 08:07:10;;;;;;;5.38;3.17;;;;;;;17.23;100.00;101337.75;5056732;28;19913;-38
2023/08/05 08:09:36;;;;;;;6.47;3.50;;;;;;;17.34;100.00;101324.97;5056050;28;20036;-38
2023/08/05 08:12:01;;;;;;;;;;;;;;;17.56;100.00;101324.78;5056807;28;20036;-37
2023/08/05 08:14:26;;;;;;;6.10;3.30;;;;;;;17.60;100.00;101318.53;5056336;28;19959;-37
2023/08/05 08:16:52;;;;;;;;;;;;;;;17.81;100.00;101333.13;5057460;28;20103;-36
2023/08/05 08:19:18;;;;;;;4.65;3.40;;;;;;;17.84;100.00;101331.78;5055452;28;19924;-37
2023/08/05 08:21:45;;;;;;;4.65;3.28;;;;;;;17.85;100.00;101325.22;5056743;28;20028;-36
2023/08/05 08:24:11;;;;;;;4.30;3.28;;;;;;;17.89;100.00;101310.75;5056016;28;20064;-37
2023/08/05 08:26:36;;;;;;;;;;;;;;;18.06;100.00;101318.75;5056899;28;20021;-36
2023/08/05 08:29:01;;;;;;;4.07;3.67;;;;;;;17.91;100.00;101310.47;5056244;28;19908;-36
2023/08/05 08:31:30;;;;;;;;;;;;;;;17.98;100.00;101302.84;5056289;28;20248;-37
2023/08/05 08:33:56;;;;;;;4.15;3.08;;;;;;;17.87;100.00;101301.19;5056154;28;19909;-37
2023/08/05 08:36:21;;;;;;;4.32;3.00;;;;;;;17.92;100.00;101295.72;5056509;28;20025;-37
2023/08/05 08:38:47;;;;;;;;;;;;;;;18.11;100.00;101293.31;5056210;28;20051;-37
2023/08/05 08:41:12;;;;;;;3.70;2.80;;;;;;;18.16;100.00;101296.06;5055672;28;20355;-37
2023/08/05 08:43:37;;;;;;;;;;;;;;;18.43;100.00;101284.84;5056219;28;20702;-37
2023/08/05 08:46:05;;;;;;;4.57;2.50;;;;;;;18.46;100.00;101295.28;5056539;28;19912;-37
2023/08/05 08:48:34;;;;;;;3.70;2.30;;;;;;;18.46;100.00;101273.38;5055572;28;20032;-37
2023/08/05 08:51:01;;;;;;;2.60;2.08;;;;;;;18.59;100.00;101278.28;5056140;28;20040;-37
2023/08/05 08:53:27;;;;;;;2.45;2.15;;;;;;;18.73;100.00;101273.09;5055244;28;20029;-37
2023/08/05 08:55:52;;;;;;;;;;;;;;;18.94;100.00;101268.44;5055941;28;20021;-37
2023/08/05 08:58:18;;;;;;;3.65;1.83;;;;;;;19.00;100.00;101267.34;5056060;28;19921;-37
2023/08/05 09:00:43;;;;;;;;;;;;;;;19.13;100.00;101264.03;5055698;28;20029;-37
2023/08/05 09:03:10;;;;;;;2.75;1.65;;;;;;;19.05;100.00;101264.56;5055622;28;19909;-37
2023/08/05 09:05:52;;;;;;;3.60;1.95;;;;;;;19.10;100.00;101261.81;5055331;28;20033;-37
2023/08/05 09:08:18;;;;;;;2.85;1.52;;;;;;;19.08;100.00;101260.44;5055539;28;20024;-37
2023/08/05 09:10:44;;;;;;;3.00;1.60;;;;;;;19.07;100.00;101251.41;5055009;28;20021;-37
2023/08/05 09:13:10;;;;;;;;;;;;;;;19.22;100.00;101251.34;5055951;28;20047;-37
2023/08/05 09:15:36;;;;;;;2.47;1.40;;;;;;;19.10;100.00;101245.38;5055146;28;20300;-38
2023/08/05 09:18:04;;;;;;;2.78;1.20;;;;;;;18.95;100.00;101237.19;5054727;28;20025;-37
2023/08/05 09:20:34;;;;;;;2.45;1.45;;;;;;;18.96;100.00;101230.59;5055252;28;20031;-37
2023/08/05 09:23:02;;;;;;;2.15;1.38;;;;;;;18.70;100.00;101211.50;5055348;28;20142;-37
2023/08/05 09:25:32;;;;;;;2.47;1.30;;;;;;;18.82;100.00;101226.81;5055640;28;20090;-37
2023/08/05 09:28:00;;;;;;;1.75;1.13;;;;;;;18.80;100.00;101213.38;5054601;28;20470;-37
2023/08/05 09:30:25;;;;;;;2.67;1.33;;;;;;;19.02;100.00;101211.13;5054702;28;20024;-37
2023/08/05 09:32:52;;;;;;;;;;;;;;;19.24;100.00;101208.06;5055201;28;20458;-37
2023/08/05 09:35:17;;;;;;;2.53;1.40;;;;;;;19.12;98.35;101188.34;5054777;28;19912;-37
2023/08/05 09:37:48;;;;;;;3.60;1.70;;;;;;;19.18;97.40;101191.88;5054744;28;20039;-37
2023/08/05 09:40:28;;;;;;;2.10;1.50;;;;;;;19.28;98.16;101187.19;5055186;28;20060;-37
2023/08/05 09:43:03;;;;;;;4.30;2.00;;;;;;;19.37;97.66;101192.09;5054260;28;20489;-38
2023/08/05 09:45:30;;;;;;;3.40;1.40;;;;;;;19.64;99.32;101189.78;5054601;28;20117;-37
2023/08/05 09:48:04;;;;;;;2.75;1.65;;;;;;;19.80;96.77;101172.13;5054839;28;20079;-37
2023/08/05 09:50:36;;;;;;;3.25;2.05;;;;;;;19.62;94.12;101182.94;5055371;28;20025;-37
2023/08/05 09:53:06;;;;;;;2.72;1.50;;;;;;;19.43;95.88;101183.56;5054379;28;20054;-37
2023/08/05 09:55:33;;;;;;;3.30;1.80;;;;;;;19.25;100.00;101176.78;5054327;28;20032;-37
2023/08/05 09:57:58;;;;;;;3.35;1.70;;;;;;;19.16;100.00;101172.97;5054242;28;20029;-37
2023/08/05 10:00:24;;;;;;;;;;;;;;;19.30;100.00;101167.72;5054485;28;20048;-37
2023/08/05 10:02:50;;;;;;;2.88;1.50;;;;;;;19.27;100.00;101169.09;5054561;28;19919;-37
2023/08/05 10:05:16;;;;;;;3.33;1.80;;;;;;;19.23;100.00;101168.03;5054453;28;20090;-37
2023/08/05 10:07:42;;;;;;;;;;;;;;;19.41;100.00;101169.31;5054881;28;20444;-37
2023/08/05 10:10:09;;;;;;;7.43;3.15;;;;;;;19.25;99.41;101160.34;5053894;28;19962;-38
2023/08/05 10:12:46;;;;;;;3.85;2.20;;;;;;;19.22;100.00;101133.47;5054698;28;20110;-38
2023/08/05 10:15:21;;;;;;;4.40;2.10;;;;;;;19.30;99.63;101146.59;5054654;28;20025;-38
2023/08/05 10:17:48;;;;;;;3.05;1.75;;;;;;;19.36;100.00;101143.84;5054874;28;20338;-38
2023/08/05 10:20:14;;;;;;;2.95;1.65;;;;;;;19.53;100.00;101139.63;5054208;28;20082;-38
2023/08/05 10:22:39;;;;;;;;;;;;;;;19.58;98.63;101141.53;5054981;28;20108;-38
2023/08/05 10:25:06;;;;;;;2.80;1.88;;;;;;;19.34;97.66;101140.56;5054369;28;20333;-38
2023/08/05 10:27:34;;;;;;;3.80;2.28;;;;;;;19.27;99.40;101138.13;5053787;28;20029;-38
2023/08/05 10:30:07;;;;;;;4.00;2.00;;;;;;;19.30;99.30;101130.16;5053351;28;20029;-38
2023/08/05 10:32:35;;;;;;;3.13;1.90;;;;;;;19.33;100.00;101123.28;5053802;28;20029;-38
2023/08/05 10:35:28;;;;;;;2.63;2.00;;;;;;;19.36;100.00;101130.94;5053584;28;20036;-38
2023/08/05 10:38:06;;;;;;;4.75;2.35;;;;;;;19.19;100.00;101135.97;5053512;28;20102;-38
2023/08/05 10:40:37;;;;;;;5.03;2.58;;;;;;;19.09;100.00;101134.09;5053240;28;20483;-38
2023/08/05 10:43:03;;;;;;;5.07;2.42;;;;;;;18.92;100.00;101122.66;5054108;28;20033;-38
2023/08/05 10:45:28;;;;;;;3.45;2.40;;;;;;;19.00;100.00;101131.13;5054112;28;20029;-38
2023/08/05 10:47:54;;;;;;;;;;;;;;;19.18;100.00;101132.41;5053983;28;20029;-38
2023/08/05 10:50:19;;;;;;;5.03;2.75;;;;;;;19.05;98.35;101135.75;5053398;28;20284;-38
2023/08/05 10:52:45;;;;;;;6.20;2.70;;;;;;;18.97;99.49;101125.38;5053089;28;20104;-38
2023/08/05 10:55:12;;;;;;;3.22;2.40;;;;;;;18.98;100.00;101118.78;5053697;28;20060;-38
2023/08/05 10:57:43;;;;;;;4.32;2.78;;;;;;;19.02;100.00;101123.44;5053179;28;20025;-38
2023/08/05 11:00:17;;;;;;;11.18;2.88;;;;;;;18.97;100.00;101119.88;5053614;28;20049;-38
2023/08/05 11:02:42;;;;;;;4.32;2.65;;;;;;;19.06;100.00;101118.22;5053004;28;20044;-38
2023/08/05 11:05:08;;;;;;;;;;;;;;;19.19;100.00;101125.84;5053819;28;20029;-38
2023/08/05 11:07:38;;;;;;;4.63;2.20;;;;;;;19.02;100.00;101108.91;5054048;28;19912;-38
2023/08/05 11:10:05;;;;;;;3.25;2.40;;;;;;;18.98;99.00;101116.03;5053524;28;20128;-38
2023/08/05 11:12:30;;;;;;;3.60;2.55;;;;;;;18.98;99.30;101110.56;5052932;28;20024;-38
2023/08/05 11:14:59;;;;;;;;;;;;;;;19.22;100.00;101111.53;5053658;28;20037;-38
2023/08/05 11:17:24;;;;;;;4.05;2.20;;;;;;;19.19;98.35;101106.66;5053845;28;19967;-38
2023/08/05 11:19:53;;;;;;;;;;;;;;;19.36;100.00;101098.03;5053599;28;20029;-38
2023/08/05 11:22:30;;;;;;;6.63;2.22;;;;;;;19.21;97.92;101090.72;5053474;28;19913;-38
2023/08/05 11:24:59;;;;;;;;;;;;;;;19.36;98.32;101098.03;5053294;28;20370;-38
2023/08/05 11:27:43;;;;;;;3.70;2.10;;;;;;;19.23;95.56;101094.00;5053723;28;20268;-38
2023/08/05 11:30:12;;;;;;;4.82;2.30;;;;;;;19.11;95.25;101076.25;5052870;28;20025;-38
2023/08/05 11:32:56;;;;;;;2.85;1.95;;;;;;;19.11;97.74;101070.78;5052830;28;20564;-38